createdAt,value
2022-08-28T00:00:41.671Z,15.80
2022-08-28T00:03:10.489Z,15.70
2022-08-28T00:05:39.490Z,15.70
2022-08-28T00:08:08.095Z,15.70
2022-08-28T00:10:35.686Z,15.70
2022-08-28T00:13:02.504Z,15.60
2022-08-28T00:15:32.747Z,15.60
2022-08-28T00:18:00.060Z,15.60
2022-08-28T00:20:27.926Z,15.60
2022-08-28T00:22:55.539Z,15.50
2022-08-28T00:25:25.158Z,15.50
2022-08-28T00:27:55.272Z,15.50
2022-08-28T00:30:45.198Z,15.40
2022-08-28T00:33:38.066Z,15.40
2022-08-28T00:36:05.200Z,15.40
2022-08-28T00:38:31.976Z,15.40
2022-08-28T00:41:03.753Z,15.30
2022-08-28T00:43:42.875Z,15.30
2022-08-28T00:46:23.400Z,15.30
2022-08-28T00:48:50.890Z,15.30
2022-08-28T00:51:38.657Z,15.30
2022-08-28T00:54:07.947Z,15.20
2022-08-28T00:56:36.040Z,15.20
2022-08-28T00:59:09.016Z,15.20
2022-08-28T01:01:36.400Z,15.20
2022-08-28T01:04:06.165Z,15.20
2022-08-28T01:06:34.209Z,15.20
2022-08-28T01:09:01.116Z,15.10
2022-08-28T01:11:29.031Z,15.10
2022-08-28T01:14:01.959Z,15.00
2022-08-28T01:16:33.061Z,15.10
2022-08-28T01:19:02.481Z,15.00
2022-08-28T01:21:36.643Z,15.00
2022-08-28T01:24:09.748Z,15.00
2022-08-28T01:26:38.472Z,14.90
2022-08-28T01:29:08.203Z,14.90
2022-08-28T01:31:36.708Z,14.90
2022-08-28T01:34:05.885Z,14.90
2022-08-28T01:36:33.445Z,14.90
2022-08-28T01:39:05.598Z,14.90
2022-08-28T01:41:32.233Z,14.80
2022-08-28T01:43:59.480Z,14.80
2022-08-28T01:46:26.285Z,14.80
2022-08-28T01:48:53.001Z,14.80
2022-08-28T01:51:24.380Z,14.80
2022-08-28T01:53:51.751Z,14.80
2022-08-28T01:56:19.528Z,14.80
2022-08-28T01:58:48.162Z,14.70
2022-08-28T02:01:18.158Z,14.70
2022-08-28T02:03:46.224Z,14.70
2022-08-28T02:06:14.311Z,14.60
2022-08-28T02:08:42.611Z,14.70
2022-08-28T02:11:10.072Z,14.60
2022-08-28T02:13:38.083Z,14.60
2022-08-28T02:16:07.119Z,14.60
2022-08-28T02:18:33.771Z,14.60
2022-08-28T02:21:01.229Z,14.60
2022-08-28T02:23:28.199Z,14.60
2022-08-28T02:25:54.930Z,14.60
2022-08-28T02:28:21.643Z,14.60
2022-08-28T02:30:48.476Z,14.50
2022-08-28T02:33:16.131Z,14.50
2022-08-28T02:35:42.919Z,14.50
2022-08-28T02:38:10.578Z,14.50
2022-08-28T02:40:38.451Z,14.40
2022-08-28T02:43:05.849Z,14.40
2022-08-28T02:45:33.278Z,14.40
2022-08-28T02:48:01.875Z,14.30
2022-08-28T02:50:30.915Z,14.30
2022-08-28T02:52:57.838Z,14.40
2022-08-28T02:55:25.137Z,14.30
2022-08-28T02:57:52.965Z,14.20
2022-08-28T03:00:23.954Z,14.30
2022-08-28T03:02:50.877Z,14.30
2022-08-28T03:05:21.448Z,14.20
2022-08-28T03:07:49.382Z,14.20
2022-08-28T03:10:17.021Z,14.20
2022-08-28T03:12:43.693Z,14.20
2022-08-28T03:15:10.964Z,14.10
2022-08-28T03:17:38.320Z,14.10
2022-08-28T03:20:07.015Z,14.10
2022-08-28T03:22:52.526Z,14.10
2022-08-28T03:25:19.771Z,14.10
2022-08-28T03:27:46.416Z,14.10
2022-08-28T03:30:13.976Z,14.10
2022-08-28T03:32:41.073Z,14.10
2022-08-28T03:35:08.313Z,14.00
2022-08-28T03:37:35.800Z,14.00
2022-08-28T03:40:03.560Z,14.00
2022-08-28T03:42:31.519Z,14.10
2022-08-28T03:44:59.331Z,14.00
2022-08-28T03:47:28.282Z,14.00
2022-08-28T03:49:57.736Z,14.00
2022-08-28T03:52:25.205Z,14.00
2022-08-28T03:54:52.661Z,14.00
2022-08-28T03:57:20.434Z,14.00
2022-08-28T03:59:52.316Z,13.90
2022-08-28T04:02:20.523Z,13.90
2022-08-28T04:04:49.120Z,13.80
2022-08-28T04:07:17.270Z,13.80
2022-08-28T04:09:43.976Z,13.80
2022-08-28T04:12:11.708Z,13.80
2022-08-28T04:14:38.759Z,13.80
2022-08-28T04:17:06.614Z,13.80
2022-08-28T04:19:33.656Z,13.80
2022-08-28T04:22:01.350Z,13.80
2022-08-28T04:24:28.039Z,13.80
2022-08-28T04:26:54.689Z,13.70
2022-08-28T04:29:22.620Z,13.70
2022-08-28T04:31:49.972Z,13.70
2022-08-28T04:34:16.636Z,13.70
2022-08-28T04:36:43.495Z,13.70
2022-08-28T04:39:11.075Z,13.70
2022-08-28T04:41:38.716Z,13.70
2022-08-28T04:44:06.706Z,13.70
2022-08-28T04:46:33.647Z,13.70
2022-08-28T04:49:00.664Z,13.70
2022-08-28T04:51:27.662Z,13.60
2022-08-28T04:53:54.310Z,13.60
2022-08-28T04:56:21.026Z,13.70
2022-08-28T04:58:48.133Z,13.60
2022-08-28T05:01:20.210Z,13.60
2022-08-28T05:03:48.416Z,13.60
2022-08-28T05:06:16.083Z,13.60
2022-08-28T05:08:42.833Z,13.60
2022-08-28T05:11:24.517Z,13.50
2022-08-28T05:14:06.365Z,13.60
2022-08-28T05:16:40.698Z,13.60
2022-08-28T05:19:07.538Z,13.60
2022-08-28T05:21:34.471Z,13.60
2022-08-28T05:24:01.106Z,13.60
2022-08-28T05:26:29.887Z,13.70
2022-08-28T05:28:58.008Z,13.70
2022-08-28T05:31:26.539Z,13.70
2022-08-28T05:33:53.929Z,13.80
2022-08-28T05:36:22.674Z,13.70
2022-08-28T05:38:51.199Z,13.80
2022-08-28T05:41:23.938Z,13.80
2022-08-28T05:43:50.781Z,13.80
2022-08-28T05:46:17.807Z,13.80
2022-08-28T05:48:45.706Z,13.90
2022-08-28T05:51:15.666Z,13.90
2022-08-28T05:53:43.905Z,14.00
2022-08-28T05:56:12.952Z,14.00
2022-08-28T05:58:40.445Z,14.10
2022-08-28T06:01:08.513Z,14.10
2022-08-28T06:03:36.316Z,14.20
2022-08-28T06:06:04.013Z,14.30
2022-08-28T06:08:32.336Z,14.30
2022-08-28T06:11:01.697Z,14.30
2022-08-28T06:13:30.821Z,14.40
2022-08-28T06:15:57.910Z,14.50
2022-08-28T06:18:25.913Z,14.60
2022-08-28T06:20:53.834Z,14.60
2022-08-28T06:23:23.892Z,14.70
2022-08-28T06:25:51.877Z,14.80
2022-08-28T06:28:23.899Z,14.90
2022-08-28T06:31:18.082Z,15.00
2022-08-28T06:33:38.965Z,15.10
2022-08-28T06:36:06.000Z,15.20
2022-08-28T06:38:32.679Z,15.30
2022-08-28T06:41:00.192Z,15.30
2022-08-28T06:43:29.234Z,15.40
2022-08-28T06:45:57.428Z,15.50
2022-08-28T06:48:27.584Z,15.50
2022-08-28T06:50:55.955Z,15.70
2022-08-28T06:53:26.430Z,15.70
2022-08-28T06:56:01.962Z,15.80
2022-08-28T06:58:29.356Z,15.90
2022-08-28T07:01:05.175Z,16.00
2022-08-28T07:03:32.027Z,16.10
2022-08-28T07:06:00.697Z,16.10
2022-08-28T07:08:29.153Z,16.20
2022-08-28T07:10:56.447Z,16.30
2022-08-28T07:13:23.446Z,16.40
2022-08-28T07:15:50.213Z,16.50
2022-08-28T07:18:17.558Z,16.50
2022-08-28T07:20:45.520Z,16.60
2022-08-28T07:23:12.342Z,16.70
2022-08-28T07:25:42.788Z,16.70
2022-08-28T07:28:09.659Z,16.80
2022-08-28T07:30:36.303Z,16.90
2022-08-28T07:33:03.128Z,16.90
2022-08-28T07:35:29.828Z,17.00
2022-08-28T07:37:58.015Z,17.10
2022-08-28T07:40:24.906Z,17.20
2022-08-28T07:43:10.679Z,17.20
2022-08-28T07:45:37.672Z,17.30
2022-08-28T07:48:11.370Z,17.40
2022-08-28T07:50:41.440Z,17.50
2022-08-28T07:53:08.497Z,17.50
2022-08-28T07:55:38.711Z,17.60
2022-08-28T07:58:06.001Z,17.70
2022-08-28T08:00:32.916Z,17.70
2022-08-28T08:02:59.913Z,17.70
2022-08-28T08:05:27.120Z,17.80
2022-08-28T08:07:54.059Z,17.90
2022-08-28T08:10:21.022Z,18.00
2022-08-28T08:12:47.950Z,18.20
2022-08-28T08:15:17.538Z,18.00
2022-08-28T08:17:45.560Z,18.10
2022-08-28T08:20:12.979Z,18.20
2022-08-28T08:22:39.924Z,18.40
2022-08-28T08:25:21.613Z,18.50
2022-08-28T08:27:50.205Z,18.50
2022-08-28T08:30:17.453Z,18.80
2022-08-28T08:32:44.637Z,19.00
2022-08-28T08:35:12.983Z,19.20
2022-08-28T08:37:39.914Z,19.00
2022-08-28T08:40:10.728Z,19.20
2022-08-28T08:42:38.828Z,19.40
2022-08-28T08:45:15.319Z,19.50
2022-08-28T08:47:54.009Z,19.40
2022-08-28T08:50:24.751Z,19.60
2022-08-28T08:53:06.756Z,19.50
2022-08-28T08:55:41.881Z,19.60
2022-08-28T08:58:26.972Z,19.70
2022-08-28T09:01:27.564Z,19.70
2022-08-28T09:04:40.399Z,19.70
2022-08-28T09:07:16.885Z,19.90
2022-08-28T09:09:53.659Z,19.90
2022-08-28T09:12:24.795Z,19.90
2022-08-28T09:15:05.352Z,20.00
2022-08-28T09:17:36.093Z,20.10
2022-08-28T09:20:09.068Z,20.20
2022-08-28T09:22:44.411Z,20.30
2022-08-28T09:25:13.308Z,20.30
2022-08-28T09:27:47.729Z,20.50
2022-08-28T09:30:14.665Z,20.80
2022-08-28T09:32:44.491Z,20.90
2022-08-28T09:35:23.612Z,21.00
2022-08-28T09:37:50.988Z,21.00
2022-08-28T09:40:24.691Z,21.00
2022-08-28T09:43:25.947Z,21.00
2022-08-28T09:46:03.284Z,21.20
2022-08-28T09:48:45.225Z,21.20
2022-08-28T09:51:21.473Z,21.30
2022-08-28T09:53:57.322Z,21.30
2022-08-28T09:56:34.108Z,21.20
2022-08-28T09:59:10.564Z,21.60
2022-08-28T10:01:50.155Z,21.60
2022-08-28T10:04:50.258Z,21.80
2022-08-28T10:07:28.444Z,21.80
2022-08-28T10:10:19.655Z,21.50
2022-08-28T10:13:14.957Z,21.70
2022-08-28T10:15:43.540Z,21.80
2022-08-28T10:18:35.994Z,22.10
2022-08-28T10:21:21.873Z,21.60
2022-08-28T10:24:16.255Z,22.00
2022-08-28T10:27:11.793Z,21.90
2022-08-28T10:29:49.989Z,22.20
2022-08-28T10:32:55.363Z,22.20
2022-08-28T10:35:47.369Z,22.30
2022-08-28T10:38:38.367Z,22.40
2022-08-28T10:41:16.899Z,22.50
2022-08-28T10:43:50.183Z,22.60
2022-08-28T10:46:27.043Z,22.90
2022-08-28T10:49:02.503Z,22.70
2022-08-28T10:51:49.426Z,22.30
2022-08-28T10:54:36.734Z,22.10
2022-08-28T10:57:21.824Z,22.00
2022-08-28T10:59:52.438Z,22.10
2022-08-28T11:02:22.982Z,22.00
2022-08-28T11:04:51.855Z,21.90
2022-08-28T11:07:43.497Z,22.30
2022-08-28T11:10:36.768Z,22.80
2022-08-28T11:13:06.617Z,23.00
2022-08-28T11:15:37.203Z,22.80
2022-08-28T11:18:19.190Z,22.40
2022-08-28T11:21:20.331Z,22.30
2022-08-28T11:24:05.910Z,22.30
2022-08-28T11:26:41.452Z,22.90
2022-08-28T11:29:08.372Z,23.30
2022-08-28T11:31:38.833Z,23.50
2022-08-28T11:34:06.384Z,23.70
2022-08-28T11:36:33.338Z,23.50
2022-08-28T11:39:20.975Z,23.70
2022-08-28T11:42:09.821Z,23.50
2022-08-28T11:44:44.969Z,23.30
2022-08-28T11:47:35.289Z,23.80
2022-08-28T11:50:27.184Z,24.10
2022-08-28T11:53:07.672Z,24.20
2022-08-28T11:55:57.118Z,24.00
2022-08-28T11:58:37.449Z,23.80
2022-08-28T12:01:10.876Z,23.50
2022-08-28T12:03:45.080Z,23.40
2022-08-28T12:06:14.489Z,23.80
2022-08-28T12:08:53.538Z,23.80
2022-08-28T12:11:50.150Z,23.40
2022-08-28T12:14:26.125Z,23.40
2022-08-28T12:16:59.105Z,24.20
2022-08-28T12:19:56.425Z,24.30
2022-08-28T12:22:39.888Z,23.90
2022-08-28T12:25:11.270Z,23.70
2022-08-28T12:27:39.626Z,23.40
2022-08-28T12:30:06.868Z,23.40
2022-08-28T12:32:33.808Z,23.30
2022-08-28T12:35:00.765Z,24.20
2022-08-28T12:37:54.098Z,24.70
2022-08-28T12:40:28.953Z,24.30
2022-08-28T12:43:04.309Z,23.70
2022-08-28T12:45:54.920Z,23.60
2022-08-28T12:48:33.505Z,23.30
2022-08-28T12:51:13.062Z,24.10
2022-08-28T12:53:45.718Z,24.70
2022-08-28T12:56:15.553Z,25.00
2022-08-28T12:58:43.609Z,24.40
2022-08-28T13:01:14.734Z,24.10
2022-08-28T13:03:54.614Z,24.60
2022-08-28T13:06:26.579Z,25.10
2022-08-28T13:09:01.393Z,25.70
2022-08-28T13:11:38.679Z,25.80
2022-08-28T13:14:06.344Z,26.40
2022-08-28T13:16:36.419Z,25.80
2022-08-28T13:19:06.681Z,26.60
2022-08-28T13:21:35.210Z,26.80
2022-08-28T13:24:22.452Z,27.10
2022-08-28T13:27:17.969Z,27.10
2022-08-28T13:30:01.185Z,27.00
2022-08-28T13:32:30.234Z,27.00
2022-08-28T13:35:06.581Z,27.30
2022-08-28T13:37:55.335Z,27.20
2022-08-28T13:43:23.305Z,27.20
2022-08-28T13:45:51.557Z,27.60
2022-08-28T13:48:25.616Z,27.70
2022-08-28T13:51:05.184Z,27.50
2022-08-28T13:53:37.325Z,27.80
2022-08-28T13:56:05.404Z,27.70
2022-08-28T13:58:32.722Z,28.00
2022-08-28T14:00:59.971Z,27.90
2022-08-28T14:03:36.402Z,27.90
2022-08-28T14:06:11.312Z,28.20
2022-08-28T14:08:39.948Z,28.30
2022-08-28T14:11:07.650Z,28.30
2022-08-28T14:13:36.023Z,27.70
2022-08-28T14:16:07.910Z,28.40
2022-08-28T14:18:35.464Z,28.50
2022-08-28T14:21:05.252Z,28.30
2022-08-28T14:23:33.844Z,27.40
2022-08-28T14:26:00.992Z,27.00
2022-08-28T14:28:27.777Z,28.30
2022-08-28T14:30:54.980Z,28.90
2022-08-28T14:33:22.015Z,28.60
2022-08-28T14:35:49.924Z,28.70
2022-08-28T14:38:17.337Z,27.60
2022-08-28T14:40:45.001Z,27.10
2022-08-28T14:43:13.673Z,27.80
2022-08-28T14:45:49.597Z,28.30
2022-08-28T14:48:18.754Z,27.70
2022-08-28T14:50:49.266Z,26.90
2022-08-28T14:53:17.248Z,26.60
2022-08-28T14:55:47.564Z,26.20
2022-08-28T14:58:16.566Z,26.50
2022-08-28T15:00:49.747Z,26.00
2022-08-28T15:03:18.627Z,25.90
2022-08-28T15:05:46.756Z,26.40
2022-08-28T15:08:16.833Z,27.00
2022-08-28T15:10:44.182Z,26.80
2022-08-28T15:13:12.586Z,27.00
2022-08-28T15:15:41.451Z,26.80
2022-08-28T15:18:10.968Z,26.80
2022-08-28T15:20:44.150Z,26.30
2022-08-28T15:23:13.089Z,26.10
2022-08-28T15:25:40.603Z,26.10
2022-08-28T15:28:07.765Z,26.10
2022-08-28T15:30:35.506Z,26.30
2022-08-28T15:33:02.468Z,25.80
2022-08-28T15:35:29.419Z,25.50
2022-08-28T15:37:56.342Z,25.70
2022-08-28T15:40:58.926Z,25.30
2022-08-28T15:43:25.783Z,25.20
2022-08-28T15:45:52.908Z,24.80
2022-08-28T15:48:20.051Z,24.80
2022-08-28T15:50:47.321Z,24.90
2022-08-28T15:53:15.146Z,25.30
2022-08-28T15:55:45.722Z,24.90
2022-08-28T15:58:13.683Z,24.90
2022-08-28T16:00:40.993Z,24.40
2022-08-28T16:03:07.875Z,24.30
2022-08-28T16:05:40.643Z,24.40
2022-08-28T16:08:09.444Z,24.40
2022-08-28T16:10:36.719Z,24.70
2022-08-28T16:13:06.629Z,24.60
2022-08-28T16:15:34.902Z,24.40
2022-08-28T16:18:02.048Z,24.10
2022-08-28T16:20:29.079Z,24.10
2022-08-28T16:22:56.031Z,23.90
2022-08-28T16:25:23.010Z,23.90
2022-08-28T16:27:49.820Z,23.80
2022-08-28T16:30:17.747Z,24.00
2022-08-28T16:32:46.876Z,24.00
2022-08-28T16:35:16.091Z,23.70
2022-08-28T16:37:43.641Z,23.80
2022-08-28T16:40:11.744Z,23.60
2022-08-28T16:42:42.482Z,23.50
2022-08-28T16:45:18.405Z,23.50
2022-08-28T16:47:45.231Z,23.40
2022-08-28T16:50:14.240Z,23.40
2022-08-28T16:52:41.803Z,23.30
2022-08-28T16:55:11.481Z,23.20
2022-08-28T16:57:38.839Z,23.20
2022-08-28T17:00:11.013Z,23.20
2022-08-28T17:02:40.640Z,23.20
2022-08-28T17:05:08.614Z,23.30
2022-08-28T17:07:35.745Z,23.20
2022-08-28T17:10:04.026Z,23.10
2022-08-28T17:12:31.185Z,22.80
2022-08-28T17:14:58.114Z,22.70
2022-08-28T17:17:25.173Z,22.70
2022-08-28T17:19:52.211Z,22.60
2022-08-28T17:22:32.016Z,22.40
2022-08-28T17:25:07.709Z,22.40
2022-08-28T17:27:36.804Z,22.30
2022-08-28T17:30:05.107Z,22.40
2022-08-28T17:32:32.328Z,22.10
2022-08-28T17:34:59.498Z,22.20
2022-08-28T17:37:26.531Z,22.10
2022-08-28T17:39:53.663Z,22.10
2022-08-28T17:42:20.835Z,22.00
2022-08-28T17:44:47.884Z,21.90
2022-08-28T17:47:15.131Z,22.00
2022-08-28T17:49:42.456Z,22.00
2022-08-28T17:52:09.627Z,22.00
2022-08-28T17:54:36.574Z,22.00
2022-08-28T17:57:03.930Z,21.90
2022-08-28T17:59:32.816Z,21.80
2022-08-28T18:01:59.800Z,21.90
2022-08-28T18:04:26.639Z,21.80
2022-08-28T18:06:54.963Z,21.70
2022-08-28T18:09:23.360Z,21.70
2022-08-28T18:11:50.923Z,21.60
2022-08-28T18:14:18.088Z,21.60
2022-08-28T18:16:45.367Z,21.40
2022-08-28T18:19:13.811Z,21.40
2022-08-28T18:21:44.025Z,21.30
2022-08-28T18:24:13.059Z,21.20
2022-08-28T18:26:42.847Z,21.10
2022-08-28T18:29:10.807Z,21.00
2022-08-28T18:31:37.916Z,20.90
2022-08-28T18:34:05.310Z,20.90
2022-08-28T18:36:42.631Z,20.70
2022-08-28T18:39:10.453Z,20.60
2022-08-28T18:41:44.096Z,20.60
2022-08-28T18:44:15.505Z,20.50
2022-08-28T18:46:44.206Z,20.50
2022-08-28T18:49:11.861Z,20.40
2022-08-28T18:51:40.949Z,20.30
2022-08-28T18:54:07.780Z,20.30
2022-08-28T18:56:35.554Z,20.20
2022-08-28T18:59:03.308Z,20.20
2022-08-28T19:01:30.252Z,20.10
2022-08-28T19:03:56.988Z,20.00
2022-08-28T19:06:24.046Z,19.90
2022-08-28T19:08:50.726Z,19.90
2022-08-28T19:11:17.409Z,19.80
2022-08-28T19:13:44.471Z,19.80
2022-08-28T19:16:17.049Z,19.70
2022-08-28T19:18:45.640Z,19.70
2022-08-28T19:21:19.445Z,19.60
2022-08-28T19:23:55.258Z,19.50
2022-08-28T19:26:24.605Z,19.60
2022-08-28T19:28:51.642Z,19.50
2022-08-28T19:31:18.620Z,19.40
2022-08-28T19:33:46.550Z,19.30
2022-08-28T19:36:14.518Z,19.30
2022-08-28T19:38:42.085Z,19.20
2022-08-28T19:41:10.664Z,19.20
2022-08-28T19:43:42.779Z,19.20
2022-08-28T19:46:20.014Z,19.10
2022-08-28T19:48:49.519Z,19.00
